createdAt,value
2023-04-15T00:00:55.723Z,500.00
2023-04-15T00:01:55.768Z,500.00
2023-04-15T00:02:55.984Z,500.00
2023-04-15T00:03:55.796Z,498.00
2023-04-15T00:04:55.751Z,499.00
2023-04-15T00:05:55.699Z,500.00
2023-04-15T00:06:55.695Z,500.00
2023-04-15T00:07:55.677Z,500.00
2023-04-15T00:08:55.680Z,498.00
2023-04-15T00:09:55.672Z,500.00
2023-04-15T00:10:55.691Z,501.00
2023-04-15T00:11:55.665Z,500.00
2023-04-15T00:12:55.661Z,501.00
2023-04-15T00:13:55.657Z,502.00
2023-04-15T00:14:55.649Z,500.00
2023-04-15T00:15:55.638Z,500.00
2023-04-15T00:16:55.711Z,500.00
2023-04-15T00:17:55.663Z,501.00
2023-04-15T00:18:55.637Z,504.00
2023-04-15T00:19:55.627Z,500.00
2023-04-15T00:20:55.636Z,501.00
2023-04-15T00:21:55.631Z,505.00
2023-04-15T00:22:55.631Z,502.00
2023-04-15T00:23:55.622Z,501.00
2023-04-15T00:24:55.609Z,506.00
2023-04-15T00:25:55.617Z,502.00
2023-04-15T00:26:55.624Z,500.00
2023-04-15T00:27:55.588Z,501.00
2023-04-15T00:28:55.573Z,501.00
2023-04-15T00:29:55.569Z,502.00
2023-04-15T00:30:55.598Z,502.00
2023-04-15T00:31:55.554Z,502.00
2023-04-15T00:32:55.606Z,500.00
2023-04-15T00:33:55.536Z,505.00
2023-04-15T00:34:55.551Z,507.00
2023-04-15T00:35:55.576Z,505.00
2023-04-15T00:36:55.678Z,502.00
2023-04-15T00:37:55.717Z,503.00
2023-04-15T00:38:55.671Z,503.00
2023-04-15T00:39:55.697Z,500.00
2023-04-15T00:40:55.730Z,502.00
2023-04-15T00:41:55.764Z,502.00
2023-04-15T00:42:55.823Z,502.00
2023-04-15T00:43:55.838Z,503.00
2023-04-15T00:44:55.858Z,501.00
2023-04-15T00:45:55.927Z,501.00
2023-04-15T00:46:55.922Z,501.00
2023-04-15T00:48:54.994Z,503.00
2023-04-15T00:49:56.019Z,502.00
2023-04-15T00:50:56.062Z,503.00
2023-04-15T00:51:56.080Z,500.00
2023-04-15T00:52:56.125Z,504.00
2023-04-15T00:53:56.143Z,500.00
2023-04-15T00:54:56.181Z,505.00
2023-04-15T00:55:56.227Z,500.00
2023-04-15T00:56:56.236Z,502.00
2023-04-15T00:57:56.272Z,501.00
2023-04-15T00:58:56.336Z,501.00
2023-04-15T00:59:56.343Z,507.00
2023-04-15T01:00:56.378Z,505.00
2023-04-15T01:01:56.490Z,502.00
2023-04-15T01:02:56.586Z,503.00
2023-04-15T01:03:56.560Z,506.00
2023-04-15T01:04:56.538Z,504.00
2023-04-15T01:05:56.549Z,500.00
2023-04-15T01:06:56.582Z,505.00
2023-04-15T01:07:56.617Z,504.00
2023-04-15T01:08:56.642Z,502.00
2023-04-15T01:09:56.677Z,504.00
2023-04-15T01:10:56.700Z,502.00
2023-04-15T01:11:56.744Z,506.00
2023-04-15T01:12:56.748Z,504.00
2023-04-15T01:13:56.787Z,506.00
2023-04-15T01:14:56.837Z,507.00
2023-04-15T01:15:56.852Z,504.00
2023-04-15T01:16:56.873Z,507.00
2023-04-15T01:17:56.917Z,503.00
2023-04-15T01:18:56.945Z,504.00
2023-04-15T01:19:56.954Z,505.00
2023-04-15T01:20:56.986Z,504.00
2023-04-15T01:21:57.023Z,504.00
2023-04-15T01:22:57.057Z,504.00
2023-04-15T01:23:57.101Z,503.00
2023-04-15T01:24:57.139Z,505.00
2023-04-15T01:25:57.166Z,505.00
2023-04-15T01:26:57.189Z,504.00
2023-04-15T01:27:57.196Z,505.00
2023-04-15T01:28:57.243Z,502.00
2023-04-15T01:29:57.265Z,505.00
2023-04-15T01:30:57.316Z,505.00
2023-04-15T01:31:57.374Z,503.00
2023-04-15T01:32:57.454Z,502.00
2023-04-15T01:33:57.394Z,505.00
2023-04-15T01:34:57.423Z,500.00
2023-04-15T01:35:57.458Z,502.00
2023-04-15T01:36:57.493Z,505.00
2023-04-15T01:37:57.520Z,504.00
2023-04-15T01:38:57.550Z,500.00
2023-04-15T01:39:57.580Z,505.00
2023-04-15T01:40:57.617Z,506.00
2023-04-15T01:41:57.657Z,504.00
2023-04-15T01:42:57.692Z,504.00
2023-04-15T01:43:57.712Z,506.00
2023-04-15T01:44:57.739Z,504.00
2023-04-15T01:45:57.776Z,504.00
2023-04-15T01:46:57.872Z,500.00
2023-04-15T01:47:57.880Z,503.00
2023-04-15T01:48:58.132Z,502.00
2023-04-15T01:49:57.897Z,502.00
2023-04-15T01:50:57.922Z,507.00
2023-04-15T01:51:57.956Z,501.00
2023-04-15T01:52:58.002Z,503.00
2023-04-15T01:53:58.022Z,506.00
2023-04-15T01:54:58.059Z,500.00
2023-04-15T01:55:58.106Z,505.00
2023-04-15T01:56:58.131Z,505.00
2023-04-15T01:57:58.156Z,505.00
2023-04-15T01:58:58.366Z,501.00
2023-04-15T01:59:58.218Z,506.00
2023-04-15T02:00:58.293Z,502.00
2023-04-15T02:01:58.283Z,502.00
2023-04-15T02:02:58.404Z,506.00
2023-04-15T02:03:58.372Z,501.00
2023-04-15T02:04:58.374Z,503.00
2023-04-15T02:05:58.407Z,505.00
2023-04-15T02:06:58.439Z,504.00
2023-04-15T02:07:58.477Z,502.00
2023-04-15T02:08:58.662Z,508.00
2023-04-15T02:09:58.534Z,503.00
2023-04-15T02:10:58.558Z,504.00
2023-04-15T02:11:58.597Z,505.00
2023-04-15T02:12:58.634Z,506.00
2023-04-15T02:13:58.670Z,502.00
2023-04-15T02:14:58.764Z,505.00
2023-04-15T02:15:58.730Z,502.00
2023-04-15T02:16:58.858Z,500.00
2023-04-15T02:17:58.823Z,504.00
2023-04-15T02:18:58.971Z,507.00
2023-04-15T02:19:58.846Z,505.00
2023-04-15T02:20:59.064Z,510.00
2023-04-15T02:21:58.901Z,506.00
2023-04-15T02:22:58.932Z,504.00
2023-04-15T02:23:58.964Z,507.00
2023-04-15T02:24:58.990Z,504.00
2023-04-15T02:25:59.017Z,505.00
2023-04-15T02:26:59.060Z,503.00
2023-04-15T02:27:59.105Z,505.00
2023-04-15T02:28:59.334Z,506.00
2023-04-15T02:29:59.141Z,506.00
2023-04-15T02:30:59.171Z,508.00
2023-04-15T02:31:59.277Z,504.00
2023-04-15T02:32:59.266Z,505.00
2023-04-15T02:33:59.263Z,506.00
2023-04-15T02:34:59.316Z,507.00
2023-04-15T02:35:59.315Z,505.00
2023-04-15T02:36:59.401Z,504.00
2023-04-15T02:37:59.371Z,507.00
2023-04-15T02:38:59.680Z,501.00
2023-04-15T02:39:59.432Z,503.00
2023-04-15T02:40:59.458Z,504.00
2023-04-15T02:41:59.491Z,501.00
2023-04-15T02:42:59.518Z,506.00
2023-04-15T02:43:59.545Z,505.00
2023-04-15T02:44:59.598Z,503.00
2023-04-15T02:45:59.636Z,505.00
2023-04-15T02:46:59.632Z,504.00
2023-04-15T02:47:59.710Z,503.00
2023-04-15T02:49:00.230Z,503.00
2023-04-15T02:49:59.720Z,503.00
2023-04-15T02:50:59.885Z,501.00
2023-04-15T02:51:59.775Z,501.00
2023-04-15T02:52:59.802Z,509.00
2023-04-15T02:53:59.821Z,505.00
2023-04-15T02:54:59.857Z,504.00
2023-04-15T02:55:59.888Z,507.00
2023-04-15T02:56:59.925Z,510.00
2023-04-15T02:57:59.951Z,507.00
2023-04-15T02:59:00.237Z,508.00
2023-04-15T03:00:00.030Z,507.00
2023-04-15T03:01:00.079Z,509.00
2023-04-15T03:02:00.131Z,505.00
2023-04-15T03:03:00.179Z,505.00
2023-04-15T03:04:00.270Z,504.00
2023-04-15T03:05:00.186Z,507.00
2023-04-15T03:06:00.210Z,506.00
2023-04-15T03:07:00.253Z,504.00
2023-04-15T03:08:00.266Z,508.00
2023-04-15T03:09:00.566Z,505.00
2023-04-15T03:10:00.317Z,508.00
2023-04-15T03:11:00.349Z,508.00
2023-04-15T03:12:00.381Z,510.00
2023-04-15T03:13:00.409Z,509.00
2023-04-15T03:14:00.434Z,505.00
2023-04-15T03:15:00.489Z,507.00
2023-04-15T03:16:00.520Z,506.00
2023-04-15T03:17:00.524Z,509.00
2023-04-15T03:18:00.611Z,511.00
2023-04-15T03:19:00.783Z,513.00
2023-04-15T03:20:00.618Z,511.00
2023-04-15T03:21:00.635Z,507.00
2023-04-15T03:22:00.652Z,508.00
2023-04-15T03:23:00.710Z,508.00
2023-04-15T03:24:00.721Z,508.00
2023-04-15T03:25:00.738Z,504.00
2023-04-15T03:26:00.762Z,502.00
2023-04-15T03:27:00.785Z,505.00
2023-04-15T03:28:00.814Z,505.00
2023-04-15T03:29:01.106Z,501.00
2023-04-15T03:30:00.867Z,503.00
2023-04-15T03:31:00.898Z,500.00
2023-04-15T03:32:00.907Z,504.00
2023-04-15T03:33:00.960Z,501.00
2023-04-15T03:34:00.942Z,500.00
2023-04-15T03:35:00.957Z,505.00
2023-04-15T03:36:01.003Z,502.00
2023-04-15T03:37:00.999Z,504.00
2023-04-15T03:38:01.008Z,509.00
2023-04-15T03:39:01.364Z,504.00
2023-04-15T03:40:01.038Z,505.00
2023-04-15T03:41:01.050Z,505.00
2023-04-15T03:42:01.061Z,502.00
2023-04-15T03:43:01.089Z,501.00
2023-04-15T03:44:01.079Z,504.00
2023-04-15T03:45:01.088Z,500.00
2023-04-15T03:46:01.952Z,508.00
2023-04-15T03:47:01.095Z,507.00
2023-04-15T03:48:11.507Z,507.00
2023-04-15T03:49:01.366Z,508.00
2023-04-15T03:50:01.060Z,508.00
2023-04-15T03:51:00.066Z,508.00
2023-04-15T03:52:01.031Z,509.00
2023-04-15T03:53:01.022Z,506.00
2023-04-15T03:54:01.026Z,507.00
2023-04-15T03:55:01.039Z,509.00
2023-04-15T03:56:01.003Z,506.00
2023-04-15T03:57:00.978Z,505.00
2023-04-15T03:58:00.969Z,505.00
2023-04-15T03:59:01.080Z,505.00
2023-04-15T04:00:00.947Z,501.00
2023-04-15T04:01:00.935Z,505.00
2023-04-15T04:02:01.001Z,505.00
2023-04-15T04:03:01.054Z,501.00
2023-04-15T04:04:00.947Z,504.00
2023-04-15T04:05:00.881Z,506.00
2023-04-15T04:06:00.865Z,503.00
2023-04-15T04:07:00.857Z,508.00
2023-04-15T04:08:00.844Z,508.00
2023-04-15T04:09:01.005Z,501.00
2023-04-15T04:10:00.828Z,504.00
2023-04-15T04:11:00.830Z,507.00
2023-04-15T04:12:00.798Z,505.00
2023-04-15T04:13:00.789Z,506.00
2023-04-15T04:14:00.781Z,503.00
2023-04-15T04:15:00.776Z,503.00
2023-04-15T04:16:00.831Z,501.00
2023-04-15T04:17:00.824Z,506.00
2023-04-15T04:18:00.793Z,510.00
2023-04-15T04:19:00.913Z,507.00
2023-04-15T04:20:00.727Z,506.00
2023-04-15T04:21:00.703Z,508.00
2023-04-15T04:22:00.684Z,504.00
2023-04-15T04:23:00.672Z,501.00
2023-04-15T04:24:00.681Z,504.00
2023-04-15T04:25:00.663Z,501.00
2023-04-15T04:26:00.657Z,503.00
2023-04-15T04:27:00.659Z,503.00
2023-04-15T04:28:00.632Z,502.00
2023-04-15T04:29:00.822Z,505.00
2023-04-15T04:30:00.596Z,501.00
2023-04-15T04:31:00.591Z,505.00
2023-04-15T04:32:00.646Z,503.00
2023-04-15T04:33:00.749Z,502.00
2023-04-15T04:34:00.600Z,506.00
2023-04-15T04:35:00.594Z,506.00
2023-04-15T04:36:00.610Z,504.00
2023-04-15T04:37:00.602Z,505.00
2023-04-15T04:38:00.589Z,507.00
2023-04-15T04:39:00.822Z,502.00
2023-04-15T04:40:00.595Z,506.00
2023-04-15T04:41:00.597Z,503.00
2023-04-15T04:42:00.591Z,502.00
2023-04-15T04:43:00.619Z,505.00
2023-04-15T04:44:00.589Z,505.00
2023-04-15T04:45:00.596Z,503.00
2023-04-15T04:46:00.681Z,505.00
2023-04-15T04:47:00.594Z,504.00
2023-04-15T04:48:00.702Z,506.00
2023-04-15T04:49:00.718Z,504.00
2023-04-15T04:50:00.665Z,505.00
2023-04-15T04:51:00.586Z,504.00
2023-04-15T04:52:00.602Z,505.00
2023-04-15T04:53:00.578Z,504.00
2023-04-15T04:54:01.796Z,507.00
2023-04-15T04:55:00.580Z,513.00
2023-04-15T04:56:00.556Z,512.00
2023-04-15T04:57:00.550Z,501.00
2023-04-15T04:58:00.537Z,507.00
2023-04-15T04:59:00.757Z,504.00
2023-04-15T05:00:00.537Z,508.00
2023-04-15T05:01:00.535Z,500.00
2023-04-15T05:02:00.612Z,507.00
2023-04-15T05:03:00.647Z,501.00
2023-04-15T05:04:00.692Z,500.00
2023-04-15T05:05:00.451Z,503.00
2023-04-15T05:06:00.438Z,508.00
2023-04-15T05:07:00.427Z,507.00
2023-04-15T05:08:00.412Z,503.00
2023-04-15T05:09:01.295Z,507.00
2023-04-15T05:10:00.387Z,509.00
2023-04-15T05:11:00.387Z,500.00
2023-04-15T05:12:00.363Z,502.00
2023-04-15T05:13:00.348Z,502.00
2023-04-15T05:14:00.337Z,500.00
2023-04-15T05:15:00.355Z,502.00
2023-04-15T05:16:00.335Z,505.00
2023-04-15T05:17:00.298Z,500.00
2023-04-15T05:18:00.336Z,500.00
2023-04-15T05:19:00.537Z,501.00
2023-04-15T05:20:00.262Z,504.00
2023-04-15T05:21:00.270Z,503.00
2023-04-15T05:22:00.241Z,510.00
2023-04-15T05:23:00.225Z,508.00
2023-04-15T05:24:00.212Z,513.00
2023-04-15T05:25:00.197Z,509.00
2023-04-15T05:26:00.194Z,511.00
2023-04-15T05:27:00.162Z,513.00
2023-04-15T05:28:00.150Z,514.00
2023-04-15T05:29:00.417Z,512.00
2023-04-15T05:30:00.152Z,512.00
2023-04-15T05:31:00.185Z,512.00
2023-04-15T05:32:00.102Z,512.00
2023-04-15T05:33:00.114Z,512.00
2023-04-15T05:34:00.060Z,518.00
2023-04-15T05:35:00.051Z,512.00
2023-04-15T05:36:00.047Z,514.00
2023-04-15T05:37:00.016Z,510.00
2023-04-15T05:38:00.003Z,509.00
2023-04-15T05:39:00.202Z,508.00
2023-04-15T05:39:59.984Z,511.00
2023-04-15T05:40:59.970Z,509.00
2023-04-15T05:41:59.962Z,508.00
2023-04-15T05:42:59.949Z,505.00
2023-04-15T05:43:59.936Z,506.00
2023-04-15T05:44:59.929Z,504.00
2023-04-15T05:45:59.965Z,508.00
2023-04-15T05:46:59.933Z,506.00
2023-04-15T05:47:59.958Z,506.00
2023-04-15T05:49:00.158Z,504.00
2023-04-15T05:49:59.890Z,507.00
2023-04-15T05:50:59.884Z,504.00
2023-04-15T05:51:59.878Z,500.00
2023-04-15T05:52:59.861Z,505.00
2023-04-15T05:53:59.856Z,501.00
2023-04-15T05:54:59.840Z,500.00
2023-04-15T05:55:59.834Z,501.00
2023-04-15T05:56:59.818Z,502.00
2023-04-15T05:57:59.803Z,503.00
2023-04-15T05:59:00.158Z,507.00
2023-04-15T05:59:59.914Z,502.00
2023-04-15T06:00:59.766Z,505.00
2023-04-15T06:01:59.763Z,505.00
2023-04-15T06:02:59.836Z,502.00
2023-04-15T06:03:59.808Z,500.00
2023-04-15T06:04:59.791Z,504.00
2023-04-15T06:05:59.699Z,504.00
2023-04-15T06:06:59.696Z,502.00
2023-04-15T06:07:59.702Z,503.00
2023-04-15T06:08:59.775Z,502.00
2023-04-15T06:09:59.673Z,500.00
2023-04-15T06:10:59.663Z,500.00
2023-04-15T06:11:59.659Z,500.00
2023-04-15T06:12:59.652Z,504.00
2023-04-15T06:13:59.648Z,501.00
2023-04-15T06:15:00.373Z,501.00
2023-04-15T06:15:59.630Z,501.00
2023-04-15T06:16:59.618Z,502.00
2023-04-15T06:17:59.680Z,500.00
2023-04-15T06:18:59.862Z,500.00
2023-04-15T06:19:59.596Z,501.00
2023-04-15T06:20:59.599Z,501.00
2023-04-15T06:21:59.594Z,500.00
2023-04-15T06:22:59.636Z,500.00
2023-04-15T06:23:59.595Z,501.00
2023-04-15T06:24:59.593Z,502.00
2023-04-15T06:25:59.613Z,501.00
2023-04-15T06:26:59.607Z,500.00
2023-04-15T06:27:59.614Z,502.00
2023-04-15T06:28:59.825Z,502.00
2023-04-15T06:29:59.614Z,503.00
2023-04-15T06:30:59.627Z,501.00
2023-04-15T06:31:59.619Z,500.00
2023-04-15T06:32:59.593Z,500.00
2023-04-15T06:33:59.562Z,502.00
2023-04-15T06:34:59.594Z,506.00
2023-04-15T06:35:59.545Z,500.00
2023-04-15T06:36:59.540Z,501.00
2023-04-15T06:37:59.540Z,504.00
2023-04-15T06:38:59.762Z,508.00
2023-04-15T06:39:59.541Z,508.00
2023-04-15T06:40:59.537Z,506.00
2023-04-15T06:41:59.537Z,505.00
2023-04-15T06:42:59.535Z,502.00
2023-04-15T06:43:59.534Z,501.00
2023-04-15T06:44:59.543Z,500.00
2023-04-15T06:45:59.626Z,505.00
2023-04-15T06:46:59.564Z,500.00
2023-04-15T06:47:59.632Z,502.00
2023-04-15T06:48:59.709Z,500.00
2023-04-15T06:49:59.550Z,501.00
2023-04-15T06:50:59.563Z,502.00
2023-04-15T06:51:59.530Z,501.00
2023-04-15T06:52:59.558Z,501.00
2023-04-15T06:53:59.602Z,500.00
2023-04-15T06:54:59.718Z,501.00
2023-04-15T06:55:59.660Z,501.00
2023-04-15T06:56:59.713Z,500.00
2023-04-15T06:57:59.732Z,500.00
2023-04-15T06:58:59.875Z,500.00
2023-04-15T06:59:59.805Z,501.00
2023-04-15T07:00:59.857Z,503.00
2023-04-15T07:01:59.869Z,501.00
2023-04-15T07:02:59.895Z,501.00
2023-04-15T07:03:59.906Z,500.00
2023-04-15T07:04:59.916Z,500.00
2023-04-15T07:05:59.961Z,500.00
2023-04-15T07:07:00.181Z,501.00
2023-04-15T07:08:00.046Z,505.00
2023-04-15T07:09:00.350Z,506.00
2023-04-15T07:10:00.070Z,505.00
2023-04-15T07:11:00.026Z,500.00
2023-04-15T07:12:00.025Z,500.00
2023-04-15T07:13:00.021Z,501.00
2023-04-15T07:14:00.033Z,504.00
2023-04-15T07:15:00.037Z,500.00
2023-04-15T07:16:00.030Z,502.00
2023-04-15T07:17:00.047Z,502.00
2023-04-15T07:18:00.025Z,503.00
2023-04-15T07:19:00.289Z,501.00
2023-04-15T07:20:00.056Z,503.00
2023-04-15T07:21:00.032Z,502.00
2023-04-15T07:22:00.042Z,503.00
2023-04-15T07:23:00.071Z,501.00
2023-04-15T07:24:00.054Z,500.00
2023-04-15T07:25:00.059Z,503.00
2023-04-15T07:26:00.052Z,501.00
2023-04-15T07:27:01.264Z,503.00
2023-04-15T07:28:00.095Z,500.00
2023-04-15T07:29:00.299Z,500.00
2023-04-15T07:30:00.049Z,500.00
2023-04-15T07:31:00.098Z,502.00
2023-04-15T07:32:00.115Z,504.00
2023-04-15T07:33:00.225Z,500.00
2023-04-15T07:34:00.127Z,500.00
2023-04-15T07:35:00.180Z,503.00
2023-04-15T07:36:00.167Z,500.00
2023-04-15T07:37:00.163Z,503.00
2023-04-15T07:38:00.197Z,503.00
2023-04-15T07:39:00.486Z,501.00
2023-04-15T07:40:00.242Z,500.00
2023-04-15T07:41:00.210Z,500.00
2023-04-15T07:42:00.225Z,501.00
2023-04-15T07:43:00.212Z,504.00
2023-04-15T07:44:00.211Z,504.00
2023-04-15T07:45:00.209Z,501.00
2023-04-15T07:46:00.289Z,501.00
2023-04-15T07:47:00.211Z,500.00
2023-04-15T07:48:00.276Z,505.00
2023-04-15T07:49:00.554Z,505.00
2023-04-15T07:50:00.212Z,505.00
2023-04-15T07:51:00.204Z,501.00
2023-04-15T07:52:00.299Z,504.00
2023-04-15T07:53:00.215Z,501.00
2023-04-15T07:54:00.171Z,500.00
2023-04-15T07:55:00.211Z,504.00
2023-04-15T07:56:00.197Z,507.00
2023-04-15T07:57:00.171Z,512.00
2023-04-15T07:58:00.186Z,512.00
2023-04-15T07:59:00.446Z,507.00
2023-04-15T08:00:00.165Z,503.00
2023-04-15T08:01:00.159Z,500.00
2023-04-15T08:02:00.202Z,502.00
2023-04-15T08:03:00.366Z,507.00
2023-04-15T08:04:00.275Z,503.00
2023-04-15T08:05:00.245Z,509.00
2023-04-15T08:06:00.135Z,503.00
2023-04-15T08:07:00.122Z,501.00
2023-04-15T08:08:00.128Z,506.00
2023-04-15T08:09:00.474Z,509.00
2023-04-15T08:10:00.135Z,509.00
2023-04-15T08:11:00.158Z,513.00
2023-04-15T08:12:00.129Z,509.00
2023-04-15T08:13:00.115Z,509.00
2023-04-15T08:14:00.134Z,514.00
2023-04-15T08:15:00.116Z,514.00
2023-04-15T08:16:00.120Z,518.00
2023-04-15T08:17:00.112Z,514.00
2023-04-15T08:18:00.189Z,511.00
2023-04-15T08:19:00.374Z,506.00
2023-04-15T08:20:00.201Z,505.00
2023-04-15T08:21:00.157Z,508.00
2023-04-15T08:22:00.147Z,501.00
2023-04-15T08:23:00.198Z,502.00
2023-04-15T08:24:00.165Z,500.00
2023-04-15T08:25:00.180Z,503.00
2023-04-15T08:26:00.223Z,502.00
2023-04-15T08:27:00.199Z,500.00
2023-04-15T08:28:00.179Z,504.00
2023-04-15T08:29:00.408Z,510.00
2023-04-15T08:30:01.157Z,500.00
2023-04-15T08:31:00.180Z,501.00
2023-04-15T08:32:00.378Z,505.00
2023-04-15T08:33:00.202Z,500.00
2023-04-15T08:34:00.318Z,500.00
2023-04-15T08:35:00.222Z,500.00
2023-04-15T08:36:01.559Z,505.00
2023-04-15T08:37:00.832Z,509.00
2023-04-15T08:38:01.384Z,501.00
2023-04-15T08:39:00.905Z,500.00
2023-04-15T08:40:00.075Z,500.00
2023-04-15T08:41:00.135Z,501.00
2023-04-15T08:42:00.033Z,500.00
2023-04-15T08:43:00.054Z,508.00
2023-04-15T08:44:00.006Z,510.00
2023-04-15T08:44:59.986Z,514.00
2023-04-15T08:45:59.974Z,516.00
2023-04-15T08:47:00.029Z,514.00
2023-04-15T08:48:00.022Z,515.00
2023-04-15T08:49:00.259Z,517.00
2023-04-15T08:49:59.952Z,521.00
2023-04-15T08:50:59.955Z,517.00
2023-04-15T08:51:59.919Z,520.00
2023-04-15T08:52:59.914Z,522.00
2023-04-15T08:53:59.935Z,530.00
2023-04-15T08:54:59.957Z,518.00
2023-04-15T08:55:59.955Z,520.00
2023-04-15T08:56:59.980Z,523.00
2023-04-15T08:57:59.964Z,521.00
2023-04-15T08:59:00.206Z,522.00
2023-04-15T09:00:00.443Z,523.00
2023-04-15T09:00:59.979Z,521.00
2023-04-15T09:01:59.974Z,524.00
2023-04-15T09:03:00.025Z,524.00
2023-04-15T09:04:00.033Z,524.00
2023-04-15T09:04:59.924Z,523.00
2023-04-15T09:05:59.945Z,525.00
2023-04-15T09:06:59.930Z,524.00
2023-04-15T09:07:59.965Z,528.00
2023-04-15T09:09:00.186Z,525.00
2023-04-15T09:09:59.933Z,523.00
2023-04-15T09:10:59.936Z,524.00
2023-04-15T09:11:59.937Z,514.00
2023-04-15T09:12:59.943Z,520.00
2023-04-15T09:13:59.931Z,524.00
2023-04-15T09:14:59.968Z,519.00
2023-04-15T09:15:59.976Z,519.00
2023-04-15T09:17:00.004Z,522.00
2023-04-15T09:18:00.026Z,523.00
2023-04-15T09:19:00.107Z,517.00
2023-04-15T09:20:00.005Z,518.00
2023-04-15T09:21:00.027Z,512.00
2023-04-15T09:22:00.021Z,517.00
2023-04-15T09:23:00.028Z,519.00
2023-04-15T09:24:00.219Z,517.00
2023-04-15T09:25:00.042Z,521.00
2023-04-15T09:26:00.061Z,516.00
2023-04-15T09:27:00.015Z,519.00
2023-04-15T09:28:00.021Z,521.00
2023-04-15T09:29:00.025Z,514.00
2023-04-15T09:30:00.021Z,513.00
2023-04-15T09:31:00.081Z,514.00
2023-04-15T09:31:59.993Z,507.00
2023-04-15T09:33:00.055Z,504.00
2023-04-15T09:34:00.241Z,503.00
2023-04-15T09:34:59.970Z,500.00
2023-04-15T09:35:59.961Z,508.00
2023-04-15T09:37:00.074Z,511.00
2023-04-15T09:37:59.937Z,508.00
2023-04-15T09:38:59.942Z,507.00
2023-04-15T09:39:59.926Z,502.00
2023-04-15T09:40:59.911Z,503.00
2023-04-15T09:41:59.897Z,502.00
2023-04-15T09:42:59.889Z,508.00
2023-04-15T09:44:00.070Z,502.00
2023-04-15T09:44:59.868Z,502.00
2023-04-15T09:45:59.925Z,506.00
2023-04-15T09:46:59.879Z,503.00
2023-04-15T09:47:59.876Z,505.00
2023-04-15T09:48:59.854Z,500.00
2023-04-15T09:49:59.914Z,500.00
2023-04-15T09:50:59.826Z,506.00
2023-04-15T09:52:05.080Z,502.00
2023-04-15T09:52:59.821Z,502.00
2023-04-15T09:54:00.036Z,496.00
2023-04-15T09:54:59.792Z,497.00
2023-04-15T09:55:59.761Z,492.00
2023-04-15T09:56:59.737Z,489.00
2023-04-15T09:57:59.724Z,500.00
2023-04-15T09:58:59.705Z,500.00
2023-04-15T09:59:59.702Z,500.00
2023-04-15T10:00:59.710Z,501.00
2023-04-15T10:01:59.764Z,504.00
2023-04-15T10:02:59.768Z,505.00
2023-04-15T10:04:00.949Z,500.00
2023-04-15T10:04:59.706Z,500.00
2023-04-15T10:05:59.603Z,500.00
2023-04-15T10:06:59.584Z,503.00
2023-04-15T10:07:59.579Z,500.00
2023-04-15T10:08:59.572Z,500.00
2023-04-15T10:09:59.560Z,500.00
2023-04-15T10:10:59.545Z,508.00
2023-04-15T10:11:59.532Z,511.00
2023-04-15T10:12:59.516Z,501.00
2023-04-15T10:13:59.735Z,501.00
2023-04-15T10:14:59.497Z,500.00
2023-04-15T10:15:59.554Z,502.00
2023-04-15T10:16:59.464Z,505.00
2023-04-15T10:17:59.491Z,514.00
2023-04-15T10:18:59.484Z,512.00
2023-04-15T10:19:59.443Z,506.00
2023-04-15T10:20:59.441Z,500.00
2023-04-15T10:21:59.442Z,501.00
2023-04-15T10:22:59.454Z,501.00
2023-04-15T10:23:59.488Z,500.00
2023-04-15T10:24:59.446Z,500.00
2023-04-15T10:25:59.469Z,507.00
2023-04-15T10:26:59.461Z,500.00
2023-04-15T10:27:59.454Z,502.00
2023-04-15T10:29:00.136Z,502.00
2023-04-15T10:29:59.466Z,501.00
2023-04-15T10:30:59.522Z,505.00
2023-04-15T10:31:59.466Z,510.00
2023-04-15T10:32:59.525Z,510.00
2023-04-15T10:33:59.635Z,511.00
2023-04-15T10:34:59.566Z,501.00
2023-04-15T10:35:59.542Z,508.00
2023-04-15T10:36:59.560Z,505.00
2023-04-15T10:37:59.573Z,506.00
2023-04-15T10:38:59.596Z,505.00
2023-04-15T10:39:59.623Z,506.00
2023-04-15T10:40:59.653Z,513.00
2023-04-15T10:41:59.692Z,508.00
2023-04-15T10:42:59.727Z,508.00
2023-04-15T10:43:59.875Z,508.00
2023-04-15T10:44:59.779Z,511.00
2023-04-15T10:45:59.786Z,511.00
2023-04-15T10:46:59.831Z,518.00
2023-04-15T10:48:02.204Z,511.00
2023-04-15T10:48:59.813Z,511.00
2023-04-15T10:49:59.804Z,511.00
2023-04-15T10:50:59.820Z,513.00
2023-04-15T10:51:59.772Z,518.00
2023-04-15T10:52:59.764Z,519.00
2023-04-15T10:53:59.774Z,527.00
2023-04-15T10:54:59.751Z,525.00
2023-04-15T10:55:59.751Z,516.00
2023-04-15T10:56:59.726Z,515.00
2023-04-15T10:57:59.714Z,522.00
2023-04-15T10:58:59.717Z,523.00
2023-04-15T11:00:00.084Z,511.00
2023-04-15T11:00:59.689Z,516.00
2023-04-15T11:01:59.805Z,515.00
2023-04-15T11:02:59.831Z,524.00
2023-04-15T11:03:59.792Z,525.00
2023-04-15T11:04:59.640Z,523.00
2023-04-15T11:05:59.633Z,505.00
2023-04-15T11:06:59.643Z,506.00
2023-04-15T11:07:59.607Z,508.00
2023-04-15T11:08:59.598Z,515.00
2023-04-15T11:09:59.593Z,511.00
2023-04-15T11:10:59.587Z,508.00
2023-04-15T11:11:59.579Z,505.00
2023-04-15T11:12:59.564Z,515.00
2023-04-15T11:13:59.555Z,512.00
2023-04-15T11:14:59.540Z,502.00
2023-04-15T11:15:59.563Z,500.00
2023-04-15T11:16:59.516Z,500.00
2023-04-15T11:17:59.650Z,504.00
2023-04-15T11:18:59.524Z,513.00
2023-04-15T11:19:59.492Z,518.00
2023-04-15T11:20:59.537Z,521.00
2023-04-15T11:21:59.465Z,521.00
2023-04-15T11:23:13.890Z,523.00
2023-04-15T11:23:59.856Z,523.00
2023-04-15T11:24:59.436Z,523.00
2023-04-15T11:25:59.491Z,523.00
2023-04-15T11:26:59.412Z,513.00
2023-04-15T11:27:59.412Z,511.00
2023-04-15T11:28:59.389Z,514.00
2023-04-15T11:29:59.393Z,524.00
2023-04-15T11:30:59.409Z,527.00
2023-04-15T11:31:59.448Z,533.00
2023-04-15T11:32:59.556Z,539.00
2023-04-15T11:33:59.649Z,546.00
2023-04-15T11:34:59.502Z,548.00
2023-04-15T11:35:59.515Z,551.00
2023-04-15T11:36:59.524Z,556.00
2023-04-15T11:37:59.533Z,555.00
2023-04-15T11:38:59.604Z,551.00
2023-04-15T11:39:59.578Z,563.00
2023-04-15T11:40:59.604Z,563.00
2023-04-15T11:41:59.631Z,566.00
2023-04-15T11:42:59.668Z,567.00
2023-04-15T11:43:59.683Z,578.00
2023-04-15T11:44:59.681Z,584.00
2023-04-15T11:45:59.742Z,583.00
2023-04-15T11:46:59.690Z,582.00
2023-04-15T11:47:59.758Z,585.00
2023-04-15T11:48:59.754Z,592.00
2023-04-15T11:49:59.791Z,593.00
2023-04-15T11:50:59.838Z,603.00
2023-04-15T11:51:59.887Z,605.00
2023-04-15T11:52:59.915Z,602.00
2023-04-15T11:53:59.955Z,618.00
2023-04-15T11:55:00.018Z,622.00
2023-04-15T11:56:00.029Z,627.00
2023-04-15T11:57:00.031Z,639.00
2023-04-15T11:58:00.067Z,633.00
2023-04-15T11:59:00.232Z,622.00
2023-04-15T12:00:00.132Z,626.00
2023-04-15T12:01:00.211Z,640.00
2023-04-15T12:02:00.325Z,643.00
2023-04-15T12:03:00.284Z,640.00
2023-04-15T12:04:00.331Z,640.00
2023-04-15T12:05:00.236Z,639.00
2023-04-15T12:06:00.209Z,646.00
2023-04-15T12:07:00.223Z,637.00
2023-04-15T12:08:00.266Z,636.00
2023-04-15T12:09:00.246Z,633.00
2023-04-15T12:10:00.290Z,642.00
2023-04-15T12:11:00.295Z,649.00
2023-04-15T12:12:00.247Z,651.00
2023-04-15T12:13:00.252Z,658.00
2023-04-15T12:14:00.280Z,661.00
2023-04-15T12:15:00.297Z,652.00
2023-04-15T12:16:00.371Z,655.00
2023-04-15T12:17:00.563Z,662.00
2023-04-15T12:18:00.336Z,666.00
2023-04-15T12:19:00.342Z,660.00
2023-04-15T12:20:00.383Z,664.00
2023-04-15T12:21:00.715Z,673.00
2023-04-15T12:22:01.049Z,682.00
2023-04-15T12:23:00.420Z,688.00
2023-04-15T12:24:00.459Z,685.00
2023-04-15T12:25:00.495Z,685.00
2023-04-15T12:26:00.500Z,681.00
2023-04-15T12:27:00.551Z,671.00
2023-04-15T12:28:00.560Z,676.00
2023-04-15T12:29:00.582Z,661.00
2023-04-15T12:30:00.585Z,655.00